createdAt,value
2022-07-25T00:02:36.102Z,101031.03
2022-07-25T00:07:39.111Z,101028.44
2022-07-25T00:12:42.107Z,101017.81
2022-07-25T00:17:46.453Z,101005.44
2022-07-25T00:22:49.408Z,100998.44
2022-07-25T00:27:52.445Z,100999.41
2022-07-25T00:32:56.738Z,100984.38
2022-07-25T00:38:00.093Z,100984.47
2022-07-25T00:43:03.140Z,100970.28
2022-07-25T00:48:09.322Z,100970.38
2022-07-25T00:53:12.338Z,100964.28
2022-07-25T00:58:15.548Z,100964.34
2022-07-25T01:03:20.568Z,100970.72
2022-07-25T01:08:24.059Z,100980.59
2022-07-25T01:13:27.220Z,100967.38
2022-07-25T01:18:31.760Z,100967.50
2022-07-25T01:23:36.188Z,100960.44
2022-07-25T01:28:39.341Z,100950.66
2022-07-25T01:33:42.658Z,100947.97
2022-07-25T01:38:47.324Z,100951.69
2022-07-25T01:43:50.494Z,100941.97
2022-07-25T01:48:53.527Z,100934.00
2022-07-25T01:53:57.868Z,100917.06
2022-07-25T01:59:00.957Z,100909.91
2022-07-25T02:04:30.458Z,100919.00
2022-07-25T02:09:34.974Z,100912.91
2022-07-25T02:14:38.068Z,100911.16
2022-07-25T02:19:41.622Z,100899.59
2022-07-25T02:24:46.060Z,100888.03
2022-07-25T02:29:49.020Z,100884.59
2022-07-25T02:34:52.016Z,100892.81
2022-07-25T02:39:56.416Z,100884.00
2022-07-25T02:44:59.321Z,100874.28
2022-07-25T02:50:02.454Z,100862.84
2022-07-25T02:55:09.807Z,100850.44
2022-07-25T03:00:15.044Z,100846.00
2022-07-25T03:05:18.730Z,100836.25
2022-07-25T03:10:23.134Z,100837.13
2022-07-25T03:15:26.125Z,100840.69
2022-07-25T03:20:29.136Z,100818.41
2022-07-25T03:25:33.556Z,100835.34
2022-07-25T03:30:36.693Z,100839.84
2022-07-25T03:35:39.661Z,100826.50
2022-07-25T03:40:44.092Z,100829.16
2022-07-25T03:45:47.110Z,100817.50
2022-07-25T03:50:50.105Z,100814.81
2022-07-25T03:55:54.371Z,100819.28
2022-07-25T04:00:57.377Z,100817.50
2022-07-25T04:06:03.103Z,100831.81
2022-07-25T04:11:07.609Z,100836.19
2022-07-25T04:16:15.083Z,100833.53
2022-07-25T04:21:25.330Z,100824.63
2022-07-25T04:26:29.743Z,100834.41
2022-07-25T04:31:32.791Z,100838.84
2022-07-25T04:36:35.887Z,100837.09
2022-07-25T04:41:40.380Z,100827.31
2022-07-25T04:46:43.370Z,100824.72
2022-07-25T04:51:46.410Z,100815.84
2022-07-25T04:56:50.664Z,100825.63
2022-07-25T05:01:53.605Z,100822.03
2022-07-25T05:06:56.702Z,100824.72
2022-07-25T05:12:01.344Z,100826.41
2022-07-25T05:17:04.567Z,100819.03
2022-07-25T05:22:07.660Z,100819.94
2022-07-25T05:27:12.267Z,100819.88
2022-07-25T05:32:15.539Z,100825.09
2022-07-25T05:37:18.618Z,100827.78
2022-07-25T05:42:23.191Z,100850.13
2022-07-25T05:47:26.531Z,100846.47
2022-07-25T05:52:29.542Z,100847.84
2022-07-25T05:57:34.622Z,100842.16
2022-07-25T06:02:37.911Z,100844.00
2022-07-25T06:07:41.392Z,100848.50
2022-07-25T06:12:45.758Z,100838.53
2022-07-25T06:17:50.577Z,100844.63
2022-07-25T06:22:53.866Z,100849.00
2022-07-25T06:27:58.288Z,100848.88
2022-07-25T06:33:01.190Z,100852.28
2022-07-25T06:38:04.453Z,100853.06
2022-07-25T06:43:08.845Z,100858.38
2022-07-25T06:48:12.046Z,100864.84
2022-07-25T06:53:15.069Z,100879.31
2022-07-25T06:58:19.380Z,100868.44
2022-07-25T07:03:25.844Z,100869.94
2022-07-25T07:08:28.957Z,100857.38
2022-07-25T07:13:33.457Z,100867.53
2022-07-25T07:18:36.899Z,100865.81
2022-07-25T07:23:40.304Z,100858.59
2022-07-25T07:28:44.605Z,100865.47
2022-07-25T07:33:48.061Z,100863.56
2022-07-25T07:38:51.031Z,100863.41
2022-07-25T07:43:56.493Z,100874.91
2022-07-25T07:48:59.830Z,100865.41
2022-07-25T07:54:20.363Z,100863.81
2022-07-25T07:59:24.847Z,100869.94
2022-07-25T08:04:27.838Z,100867.59
2022-07-25T08:09:30.775Z,100887.03
2022-07-25T08:20:37.833Z,100884.00
2022-07-25T08:25:42.892Z,100883.97
2022-07-25T08:30:47.570Z,100879.13
2022-07-25T08:35:53.619Z,100880.09
2022-07-25T08:40:58.069Z,100886.59
2022-07-25T08:46:04.296Z,100885.41
2022-07-25T08:51:08.977Z,100888.16
2022-07-25T08:56:17.407Z,100887.84
2022-07-25T09:01:25.283Z,100880.13
2022-07-25T09:06:29.663Z,100897.41
2022-07-25T09:11:36.665Z,100886.66
2022-07-25T09:16:44.445Z,100893.09
2022-07-25T09:22:00.188Z,100907.00
2022-07-25T09:27:12.432Z,100908.06
2022-07-25T09:32:18.852Z,100921.53
2022-07-25T09:37:27.905Z,100911.16
2022-07-25T09:42:33.471Z,100905.34
2022-07-25T09:47:50.643Z,100905.03
2022-07-25T09:52:55.207Z,100915.41
2022-07-25T09:57:58.786Z,100929.19
2022-07-25T10:03:19.210Z,100943.22
2022-07-25T10:08:23.555Z,100943.09
2022-07-25T10:13:34.291Z,100955.41
2022-07-25T10:18:49.649Z,100938.72
2022-07-25T10:24:00.112Z,100948.56
2022-07-25T10:29:10.053Z,100975.44
2022-07-25T10:34:14.775Z,100964.31
2022-07-25T10:39:19.693Z,100985.03
2022-07-25T10:44:22.849Z,100979.97
2022-07-25T10:49:32.057Z,100986.97
2022-07-25T10:54:36.943Z,101001.09
2022-07-25T10:59:41.397Z,101012.56
2022-07-25T11:04:46.946Z,101010.75
2022-07-25T11:09:58.403Z,101011.13
2022-07-25T11:15:03.368Z,100999.16
2022-07-25T11:20:10.635Z,101006.22
2022-07-25T11:25:15.266Z,101012.03
2022-07-25T11:30:21.167Z,101019.63
2022-07-25T11:35:27.569Z,101009.69
2022-07-25T11:40:32.714Z,101015.88
2022-07-25T11:45:36.605Z,101034.38
2022-07-25T11:50:43.113Z,101025.84
2022-07-25T11:55:47.265Z,101029.56
2022-07-25T12:00:51.137Z,101029.31
2022-07-25T12:05:56.236Z,101038.22
2022-07-25T12:10:59.252Z,101033.13
2022-07-25T12:16:02.339Z,101028.59
2022-07-25T12:21:07.192Z,101049.34
2022-07-25T12:26:13.518Z,101034.84
2022-07-25T12:31:16.535Z,101019.84
2022-07-25T12:36:20.961Z,101030.25
2022-07-25T12:41:23.982Z,101035.47
2022-07-25T12:46:27.497Z,101030.34
2022-07-25T12:51:32.049Z,101019.91
2022-07-25T12:56:35.873Z,101038.25
2022-07-25T13:01:38.960Z,101049.03
2022-07-25T13:06:43.510Z,101027.19
2022-07-25T13:11:46.748Z,101029.94
2022-07-25T13:16:50.501Z,101039.19
2022-07-25T13:21:55.056Z,101036.25
2022-07-25T13:26:58.107Z,101026.44
2022-07-25T13:32:01.205Z,101043.00
2022-07-25T13:37:07.124Z,101044.03
2022-07-25T13:42:10.197Z,101052.97
2022-07-25T13:47:13.234Z,101039.63
2022-07-25T13:52:18.340Z,101046.06
2022-07-25T13:57:21.440Z,101068.25
2022-07-25T14:02:24.605Z,101064.59
2022-07-25T14:07:29.008Z,101071.13
2022-07-25T14:12:31.996Z,101065.91
2022-07-25T14:17:35.320Z,101054.41
2022-07-25T14:22:42.024Z,101069.13
2022-07-25T14:27:46.421Z,101057.19
2022-07-25T14:32:49.457Z,101044.19
2022-07-25T14:37:53.877Z,101049.38
2022-07-25T14:42:57.360Z,101051.81
2022-07-25T14:48:00.399Z,101056.91
2022-07-25T14:53:06.305Z,101062.31
2022-07-25T14:58:10.407Z,101066.44
2022-07-25T15:03:15.467Z,101062.84
2022-07-25T15:08:20.011Z,101067.34
2022-07-25T15:13:31.893Z,101067.41
2022-07-25T15:18:52.163Z,101076.09
2022-07-25T15:24:00.041Z,101072.63
2022-07-25T15:29:03.345Z,101070.78
2022-07-25T15:34:06.844Z,101076.63
2022-07-25T15:39:12.008Z,101072.84
2022-07-25T15:44:15.084Z,101070.56
2022-07-25T15:49:18.352Z,101086.00
2022-07-25T15:54:26.335Z,101087.88
2022-07-25T15:59:32.411Z,101084.31
2022-07-25T16:04:35.619Z,101074.44
2022-07-25T16:09:40.227Z,101080.78
2022-07-25T16:14:43.221Z,101077.75
2022-07-25T16:19:46.518Z,101081.16
2022-07-25T16:24:52.281Z,101079.56
2022-07-25T16:29:55.301Z,101098.41
2022-07-25T16:34:58.649Z,101094.69
2022-07-25T16:40:03.176Z,101105.41
2022-07-25T16:45:06.854Z,101112.28
2022-07-25T16:50:10.510Z,101119.97
2022-07-25T16:55:15.302Z,101120.69
2022-07-25T17:00:18.841Z,101129.03
2022-07-25T17:05:22.372Z,101149.13
2022-07-25T17:10:26.986Z,101143.63
2022-07-25T17:15:29.953Z,101144.84
2022-07-25T17:20:33.737Z,101151.16
2022-07-25T17:25:38.344Z,101147.75
2022-07-25T17:30:41.376Z,101152.47
2022-07-25T17:35:44.513Z,101151.50
2022-07-25T17:40:48.857Z,101153.31
2022-07-25T17:45:51.945Z,101158.53
2022-07-25T17:50:55.143Z,101157.03
2022-07-25T17:55:59.605Z,101166.31
2022-07-25T18:01:05.832Z,101176.38
2022-07-25T18:06:11.779Z,101170.09
2022-07-25T18:11:16.217Z,101157.78
2022-07-25T18:16:19.314Z,101155.03
2022-07-25T18:21:23.945Z,101160.47
2022-07-25T18:26:28.532Z,101169.59
2022-07-25T18:31:31.758Z,101171.44
2022-07-25T18:36:35.469Z,101170.63
2022-07-25T18:41:39.805Z,101183.31
2022-07-25T18:46:45.691Z,101185.97
2022-07-25T18:51:48.992Z,101186.06
2022-07-25T18:56:53.642Z,101180.72
2022-07-25T19:01:56.664Z,101194.09
2022-07-25T19:06:59.730Z,101192.41
2022-07-25T19:12:04.274Z,101203.09
2022-07-25T19:17:07.344Z,101207.69
2022-07-25T19:22:10.522Z,101205.97
2022-07-25T19:27:15.059Z,101213.09
2022-07-25T19:32:18.407Z,101211.34
2022-07-25T19:37:21.474Z,101222.97
2022-07-25T19:42:25.852Z,101226.56
2022-07-25T19:47:29.835Z,101229.28
2022-07-25T19:52:33.085Z,101234.66
2022-07-25T19:57:37.467Z,101251.59
2022-07-25T20:02:40.831Z,101246.28
2022-07-25T20:07:44.070Z,101243.63
2022-07-25T20:12:49.009Z,101240.06
2022-07-25T20:17:52.050Z,101240.97
2022-07-25T20:22:55.114Z,101249.91
2022-07-25T20:27:59.659Z,101262.38
2022-07-25T20:33:07.931Z,101255.25
2022-07-25T20:38:12.545Z,101260.59
2022-07-25T20:43:18.498Z,101256.16
2022-07-25T20:48:21.512Z,101266.84
2022-07-25T20:53:25.336Z,101260.59
2022-07-25T20:58:29.747Z,101275.72
2022-07-25T21:03:32.721Z,101271.28
2022-07-25T21:08:35.807Z,101265.94
2022-07-25T21:13:40.251Z,101273.03
2022-07-25T21:18:43.805Z,101272.13
2022-07-25T21:23:47.088Z,101271.25
2022-07-25T21:28:51.681Z,101271.25
2022-07-25T21:33:54.971Z,101281.94
2022-07-25T21:38:58.233Z,101274.78
2022-07-25T21:44:02.748Z,101282.81
2022-07-25T21:49:40.985Z,101279.25
2022-07-25T21:54:45.774Z,101289.94
2022-07-25T21:59:50.354Z,101285.50
2022-07-25T22:04:53.434Z,101286.34
2022-07-25T22:09:56.778Z,101292.59
2022-07-25T22:15:01.844Z,101286.34
2022-07-25T22:20:09.112Z,101291.69
2022-07-25T22:25:12.376Z,101298.81
2022-07-25T22:30:19.481Z,101285.50
2022-07-25T22:35:22.834Z,101286.38
2022-07-25T22:40:26.488Z,101293.50
2022-07-25T22:45:31.245Z,101300.56
2022-07-25T22:50:34.689Z,101300.56
2022-07-25T22:55:38.237Z,101295.22
2022-07-25T23:00:43.105Z,101303.25
2022-07-25T23:05:46.196Z,101300.59
2022-07-25T23:10:49.311Z,101301.50
2022-07-25T23:15:53.881Z,101297.94
2022-07-25T23:20:57.379Z,101299.69
2022-07-25T23:26:00.569Z,101302.38
2022-07-25T23:31:05.128Z,101305.03
2022-07-25T23:36:08.768Z,101303.22
2022-07-25T23:41:11.775Z,101303.22
2022-07-25T23:46:16.363Z,101300.56
2022-07-25T23:51:21.247Z,101307.66
2022-07-25T23:56:24.617Z,101316.56
